Flight Track Log - Related Links

Times and Time Zones

All times are in EDT time to prevent confusion due to time zone crossing. See the SKW6402 flight status page for this flight to view local times or setup timezone preferences in your user account.


Time Position Orientation Groundspeed Altitude Reporting Facility
EDT Latitude Longitude Course Direction KTS MPH feet Rate Location/Type
Tue 06:11:40 PM 37.6378 -122.3589 North 163 188 32,000  Level Oakland Center
Tue 06:12:42 PM 37.6703 -122.3153 47° Northeast 192 221 2,600 -12,732 Descending Oakland Center
Tue 06:13:43 PM 37.7197 -122.2739 34° Northeast 215 247 5,900 3,246 Climbing Oakland Center
Tue 06:14:00 PM 37.6441 -122.4436 120° Southeast  Level FlightAware Approximate
Tue 06:14:44 PM 37.7828 -122.2719 North 226 260 9,200  Level Oakland Center
Tue 06:15:00 PM 37.6715 -122.3606 North  Level FlightAware Approximate
Tue 06:15:45 PM 37.8575 -122.2700 North 226 260 12,400  Level Oakland Center
Tue 06:16:00 PM 37.7944 -122.3500 North  Level FlightAware Approximate
Tue 06:16:47 PM 37.9217 -122.2686 North 230 265 14,600  Level Oakland Center
Tue 06:17:00 PM 37.8936 -122.3500 North  Level FlightAware Approximate
Tue 06:17:48 PM 37.9936 -122.2675 North 256 295 16,300  Level Oakland Center
Tue 06:18:49 PM 38.0731 -122.2728 357° North 284 327 17,700 1,426 Climbing Oakland Center
Tue 06:19:50 PM 38.1575 -122.2850 354° North 305 351 19,200 1,426 Climbing Oakland Center
Tue 06:20:51 PM 38.2456 -122.2981 353° North 318 366 20,600 1,415 Climbing Oakland Center
Tue 06:21:53 PM 38.3364 -122.3111 354° North 327 376 22,100 1,463 Climbing Oakland Center
Tue 06:22:54 PM 38.4475 -122.3267 354° North 334 384 23,600 1,279 Climbing Oakland Center
Tue 06:23:55 PM 38.5433 -122.3408 353° North 344 396 24,700 1,082 Climbing Oakland Center
Tue 06:24:56 PM 38.6419 -122.3550 354° North 354 407 25,800 1,033 Climbing Oakland Center
Tue 06:25:57 PM 38.7425 -122.3719 353° North 361 415 26,800 1,024 Climbing Oakland Center
Tue 06:26:59 PM 38.8458 -122.3856 354° North 370 426 27,900 1,024 Climbing Oakland Center
Tue 06:28:00 PM 38.9500 -122.4003 354° North 374 430 28,900 984 Climbing Oakland Center
Tue 06:29:01 PM 39.0544 -122.4167 353° North 376 433 29,900 836 Climbing Oakland Center
Tue 06:30:02 PM 39.1597 -122.4303 354° North 379 436 30,600 590 Climbing Oakland Center
Tue 06:31:03 PM 39.2644 -122.4478 353° North 380 437 31,100 443 Climbing Oakland Center
Tue 06:32:04 PM 39.3728 -122.4633 354° North 388 447 31,500 390 Climbing Oakland Center
Tue 06:33:06 PM 39.4944 -122.4811 354° North 397 457 31,900 244 Climbing Oakland Center
Tue 06:34:07 PM 39.6064 -122.4981 353° North 403 464 32,000 49 Climbing Oakland Center
Tue 06:35:08 PM 39.7178 -122.5153 353° North 403 464 32,000  Level Oakland Center
Tue 06:36:09 PM 39.8306 -122.5314 354° North 404 465 32,000  Level Oakland Center
Tue 06:37:10 PM 39.9414 -122.5500 353° North 400 460 32,000  Level Oakland Center
Tue 06:38:11 PM 40.0519 -122.5678 353° North 396 456 32,000  Level Oakland Center
Tue 06:39:12 PM 40.1617 -122.5836 354° North 391 450 32,000  Level Oakland Center
Tue 06:40:14 PM 40.2689 -122.6000 353° North 384 442 32,000  Level Oakland Center
Tue 06:41:15 PM 40.3750 -122.6158 354° North 382 440 32,000  Level Oakland Center
Tue 06:42:16 PM 40.4825 -122.6319 353° North 386 444 32,000  Level Oakland Center
Tue 06:43:17 PM 40.5900 -122.6478 354° North 388 447 32,000  Level Oakland Center
Tue 06:44:18 PM 40.7206 -122.6678 353° North 394 453 32,000  Level Oakland Center
Tue 06:45:20 PM 40.8308 -122.6836 354° North 398 458 32,000  Level Oakland Center
Tue 06:46:21 PM 40.9406 -122.7011 353° North 398 458 32,000  Level Oakland Center
Tue 06:47:22 PM 41.0503 -122.7167 354° North 397 457 32,000  Level Oakland Center
Tue 06:48:23 PM 41.1594 -122.7347 353° North 394 453 32,000  Level Oakland Center
Tue 06:49:04 PM 41.2258 -122.7442 354° North 397 457 32,000  Level Seattle Center
Tue 06:50:05 PM 41.3350 -122.7617 353° North 396 456 32,000  Level Seattle Center
Tue 06:51:06 PM 41.4550 -122.7808 353° North 396 456 32,000  Level Seattle Center
Tue 06:52:07 PM 41.5653 -122.7986 353° North 398 458 32,000  Level Seattle Center
Tue 06:53:08 PM 41.6756 -122.8153 354° North 397 457 32,000  Level Seattle Center
Tue 06:54:09 PM 41.7856 -122.8342 353° North 397 457 32,000  Level Seattle Center
Tue 06:55:10 PM 41.8950 -122.8511 353° North 395 455 32,000  Level Seattle Center
Tue 06:56:11 PM 42.0053 -122.8689 353° North 394 453 32,000  Level Seattle Center
Tue 06:57:12 PM 42.1142 -122.8864 353° North 393 452 32,000  Level Seattle Center
Tue 06:58:13 PM 42.2233 -122.9036 353° North 395 455 32,000 -344 Level Seattle Center
Tue 06:59:14 PM 42.3333 -122.9228 353° North 397 457 31,300 -1,339 Descending Seattle Center
Tue 07:00:14 PM 42.4433 -122.9392 354° North 396 456 29,300 -1,983 Descending Seattle Center
Tue 07:01:15 PM 42.5503 -122.9564 353° North 387 445 27,300 -1,967 Descending Seattle Center
Tue 07:02:16 PM 42.6531 -122.9733 353° North 374 430 25,300 -1,770 Descending Seattle Center
Tue 07:03:17 PM 42.7611 -122.9928 352° North 344 396 23,700 -1,475 Descending Seattle Center
Tue 07:04:18 PM 42.8497 -123.0069 353° North 324 373 22,300 -1,525 Descending Seattle Center
Tue 07:05:19 PM 42.9353 -123.0206 353° North 311 358 20,600 -1,721 Descending Seattle Center
Tue 07:06:20 PM 43.0206 -123.0344 353° North 308 354 18,800 -1,377 Descending Seattle Center
Tue 07:07:21 PM 43.1031 -123.0497 352° North 301 346 17,800 -1,082 Descending Seattle Center
Tue 07:08:22 PM 43.1817 -123.0617 354° North 287 330 16,600 -1,230 Descending Seattle Center
Tue 07:09:23 PM 43.2592 -123.0753 353° North 283 326 15,300 -1,279 Descending Seattle Center
Tue 07:10:24 PM 43.3372 -123.0886 353° North 283 326 14,000 -1,180 Descending Seattle Center
Tue 07:11:25 PM 43.4136 -123.1008 353° North 277 319 12,900 -1,131 Descending Seattle Center
Tue 07:12:26 PM 43.4989 -123.1161 353° North 259 298 11,700 -1,082 Descending Seattle Center
Tue 07:13:27 PM 43.5681 -123.1281 353° North 250 288 10,700 -885 Descending Seattle Center
Tue 07:14:28 PM 43.6344 -123.1383 354° North 243 280 9,900 -836 Descending Seattle Center
Tue 07:15:29 PM 43.6978 -123.1494 353° North 233 268 9,000 -885 Descending Seattle Center
Tue 07:16:30 PM 43.7592 -123.1594 353° North 224 258 8,100 -934 Descending Seattle Center
Tue 07:17:31 PM 43.8136 -123.1911 337° Northwest 215 247 7,100 -1,082 Descending Seattle Center
Tue 07:18:32 PM 43.8675 -123.2300 333° Northwest 219 252 5,900 -1,033 Descending Seattle Center
Tue 07:19:33 PM 43.9217 -123.2678 333° Northwest 219 252 5,000 -590 Descending Seattle Center
Tue 07:20:34 PM 43.9778 -123.2914 343° North 217 250 4,700 -639 Descending Seattle Center
Tue 07:21:35 PM 44.0358 -123.2961 357° North 212 244 3,700 -934 Descending Seattle Center
Tue 07:22:36 PM 44.0950 -123.2925 North 213 245 2,800 -885 Descending Seattle Center

Login

Don't have an account? Register now (free) for customized features, flight alerts, and more!